H.m. Hidalgo — WDB3867 — position and weather

sailwx.info

Track history (hours):
 
Tides and Currents Weather Stations Pressure Air Temp Water Temp Dewpoint Dewpoint Depression Visibility Wind Speed Wind Dir Waves Ship Positions

H.m. Hidalgo

Owner: PACIFIC TUGBOAT SERVICE INC, SAN DIEGO, CA. More information available from US FCC via Universal Licensing System and Coast Guard Vessel Documentation Center.

Last reported at 2017-Nov-02 21:01 UTC. Time now 2017-Nov-21 23:12 UTC.
Position N 33°47' W 118°35'.
Warning: this ship's position is 19 days out of date.

Length 25 m; draft 4 m.

Type: Tow > 200 m length. MMSI: 366892180.

Date/timePositionNaut miles runAvg speedWind from/ knotsBaromVisibWave heightAir tempDewpointWater temp
2017-Nov-02 21:01N 33°47' W 118°35'0 8.0
2017-Nov-02 20:59N 33°47' W 118°35'4 8.1
2017-Nov-02 20:30N 33°49' W 118°39'4 8.1
2017-Nov-02 20:00N 33°51' W 118°44'4 8.1
2017-Nov-02 19:30N 33°53' W 118°48'4 8.0
2017-Nov-02 19:00N 33°55' W 118°52'4 7.9
2017-Nov-02 18:30N 33°57' W 118°56'4 7.7
2017-Nov-02 18:00N 33°58' W 119°00'4 7.7
2017-Nov-02 17:30N 34°00' W 119°05'4 7.5
2017-Nov-02 17:00N 34°02' W 119°09'4 7.6
2017-Nov-02 16:29N 34°04' W 119°13'3 7.4
2017-Nov-02 16:00N 34°08' W 119°13'2 3.2
2017-Nov-02 15:30N 34°09' W 119°13'0 0.0
2017-Nov-02 14:59N 34°09' W 119°13'0 0.0
2017-Nov-02 14:30N 34°09' W 119°13'0 0.0
2017-Nov-02 13:58N 34°09' W 119°13'0 0.0
2017-Nov-02 13:30N 34°09' W 119°13'0 0.0
2017-Nov-02 12:58N 34°09' W 119°13'0 0.0
2017-Nov-02 12:26N 34°09' W 119°13'0 0.0
2017-Nov-02 11:59N 34°09' W 119°13'0 0.0
2017-Nov-02 11:30N 34°09' W 119°13'0 0.0
2017-Nov-02 10:58N 34°09' W 119°13'0 0.0
2017-Nov-02 10:30N 34°09' W 119°13'0 0.0
2017-Nov-02 10:00N 34°09' W 119°13'0 0.0
2017-Nov-02 09:30N 34°09' W 119°13'0 0.0
2017-Nov-02 09:00N 34°09' W 119°13'0 0.0
2017-Nov-02 08:29N 34°09' W 119°13'0 0.0
2017-Nov-02 08:00N 34°09' W 119°13'0 0.0
2017-Nov-02 07:30N 34°09' W 119°13'0 0.0
2017-Nov-02 07:00N 34°09' W 119°13'0 0.0
2017-Nov-02 06:30N 34°09' W 119°13'0 0.0
2017-Nov-02 06:00N 34°09' W 119°13'0 0.0
2017-Nov-02 05:30N 34°09' W 119°13'0 0.0
2017-Nov-02 04:57N 34°09' W 119°13'0 0.0
2017-Nov-02 04:30N 34°09' W 119°13'0 0.0
2017-Nov-02 03:55N 34°09' W 119°13'0 0.0
2017-Nov-02 03:30N 34°09' W 119°13'0 0.0
2017-Nov-02 03:00N 34°09' W 119°13'0 0.0
2017-Nov-02 02:29N 34°09' W 119°13'0 0.0
2017-Nov-02 01:59N 34°09' W 119°13'0 0.0
2017-Nov-02 01:29N 34°09' W 119°13'0 0.0
2017-Nov-02 00:57N 34°09' W 119°13'0 0.1
2017-Nov-02 00:28N 34°09' W 119°13'2 4.1
2017-Nov-01 23:58N 34°07' W 119°14'4 7.9
2017-Nov-01 23:30N 34°04' W 119°15'4 8.3
2017-Nov-01 23:00N 33°60' W 119°15'4 8.3
2017-Nov-01 22:30N 33°56' W 119°16'4 8.5
2017-Nov-01 22:00N 33°51' W 119°16'4 8.4
2017-Nov-01 21:30N 33°47' W 119°17'4 8.4
2017-Nov-01 21:00N 33°43' W 119°18'4 8.3
2017-Nov-01 20:30N 33°39' W 119°19'4 8.7
2017-Nov-01 20:00N 33°35' W 119°20'4 8.9
2017-Nov-01 19:30N 33°30' W 119°20'4 8.5
2017-Nov-01 19:00N 33°26' W 119°21'4 7.9
2017-Nov-01 18:30N 33°22' W 119°21'41 2.5
2017-Nov-01 02:00N 34°03' W 119°15'3 5.7
2017-Nov-01 01:30N 34°06' W 119°15'3 5.3
2017-Nov-01 01:00N 34°08' W 119°13'1 2.1
2017-Nov-01 00:27N 34°09' W 119°13'0 0.0
2017-Oct-31 23:55N 34°09' W 119°13'0 0.0
2017-Oct-31 23:30N 34°09' W 119°13'0 0.0
2017-Oct-31 23:00N 34°09' W 119°13'0 0.0
2017-Oct-31 22:29N 34°09' W 119°13'0 0.0
2017-Oct-31 21:57N 34°09' W 119°13'0 0.0
2017-Oct-31 21:30N 34°09' W 119°13'0 0.0
2017-Oct-31 20:56N 34°09' W 119°13'0 0.0
2017-Oct-31 20:30N 34°09' W 119°13'0 0.0
2017-Oct-31 19:59N 34°09' W 119°13'0 0.0
2017-Oct-31 19:30N 34°09' W 119°13'0 0.0
2017-Oct-31 19:00N 34°09' W 119°13'0 0.0
2017-Oct-31 18:30N 34°09' W 119°13'0 0.0
2017-Oct-31 17:59N 34°09' W 119°13'0 0.0
2017-Oct-31 17:30N 34°09' W 119°13'0 0.0
2017-Oct-31 17:00N 34°09' W 119°13'0 0.0
2017-Oct-31 16:30N 34°09' W 119°13'0 0.0
2017-Oct-31 15:57N 34°09' W 119°13'0 0.0
2017-Oct-31 15:23N 34°09' W 119°13'0 0.0
2017-Oct-31 14:58N 34°09' W 119°13'0 0.0
2017-Oct-31 14:30N 34°09' W 119°13'0 0.5
2017-Oct-31 14:00N 34°09' W 119°12'1 2.3
2017-Oct-31 13:30N 34°08' W 119°13'3 6.2
2017-Oct-31 13:00N 34°05' W 119°12'4 7.1
2017-Oct-31 12:30N 34°03' W 119°09'3 5.6
2017-Oct-31 12:00N 34°02' W 119°06'3 5.4
2017-Oct-31 11:30N 34°01' W 119°03'3 6.1
2017-Oct-31 11:00N 33°59' W 118°60'3 6.0
2017-Oct-31 10:30N 33°57' W 118°57'3 6.0
2017-Oct-31 10:00N 33°56' W 118°53'3 6.0
2017-Oct-31 09:30N 33°54' W 118°50'3 5.9
2017-Oct-31 09:00N 33°53' W 118°47'3 5.9
2017-Oct-31 08:29N 33°51' W 118°44'  
Track history (hours):
 
Tides and Currents Weather Stations Pressure Air Temp Water Temp Dewpoint Dewpoint Depression Visibility Wind Speed Wind Dir Waves Ship Positions

H.m. Hidalgo

Owner: PACIFIC TUGBOAT SERVICE INC, SAN DIEGO, CA. More information available from US FCC via Universal Licensing System and Coast Guard Vessel Documentation Center.

Last reported at 2017-Nov-02 21:01 UTC. Time now 2017-Nov-21 23:12 UTC.
Position N 33°47' W 118°35'.
Warning: this ship's position is 19 days out of date.

Length 25 m; draft 4 m.

Type: Tow > 200 m length. MMSI: 366892180.

Date/timePositionNaut miles runAvg speedWind from/ knotsBaromVisibWave heightAir tempDewpointWater temp
2017-Nov-02 21:01N 33°47' W 118°35'0 8.0
2017-Nov-02 20:59N 33°47' W 118°35'4 8.1
2017-Nov-02 20:30N 33°49' W 118°39'4 8.1
2017-Nov-02 20:00N 33°51' W 118°44'4 8.1
2017-Nov-02 19:30N 33°53' W 118°48'4 8.0
2017-Nov-02 19:00N 33°55' W 118°52'4 7.9
2017-Nov-02 18:30N 33°57' W 118°56'4 7.7
2017-Nov-02 18:00N 33°58' W 119°00'4 7.7
2017-Nov-02 17:30N 34°00' W 119°05'4 7.5
2017-Nov-02 17:00N 34°02' W 119°09'4 7.6
2017-Nov-02 16:29N 34°04' W 119°13'3 7.4
2017-Nov-02 16:00N 34°08' W 119°13'2 3.2
2017-Nov-02 15:30N 34°09' W 119°13'0 0.0
2017-Nov-02 14:59N 34°09' W 119°13'0 0.0
2017-Nov-02 14:30N 34°09' W 119°13'0 0.0
2017-Nov-02 13:58N 34°09' W 119°13'0 0.0
2017-Nov-02 13:30N 34°09' W 119°13'0 0.0
2017-Nov-02 12:58N 34°09' W 119°13'0 0.0
2017-Nov-02 12:26N 34°09' W 119°13'0 0.0
2017-Nov-02 11:59N 34°09' W 119°13'0 0.0
2017-Nov-02 11:30N 34°09' W 119°13'0 0.0
2017-Nov-02 10:58N 34°09' W 119°13'0 0.0
2017-Nov-02 10:30N 34°09' W 119°13'0 0.0
2017-Nov-02 10:00N 34°09' W 119°13'0 0.0
2017-Nov-02 09:30N 34°09' W 119°13'0 0.0
2017-Nov-02 09:00N 34°09' W 119°13'0 0.0
2017-Nov-02 08:29N 34°09' W 119°13'0 0.0
2017-Nov-02 08:00N 34°09' W 119°13'0 0.0
2017-Nov-02 07:30N 34°09' W 119°13'0 0.0
2017-Nov-02 07:00N 34°09' W 119°13'0 0.0
2017-Nov-02 06:30N 34°09' W 119°13'0 0.0
2017-Nov-02 06:00N 34°09' W 119°13'0 0.0
2017-Nov-02 05:30N 34°09' W 119°13'0 0.0
2017-Nov-02 04:57N 34°09' W 119°13'0 0.0
2017-Nov-02 04:30N 34°09' W 119°13'0 0.0
2017-Nov-02 03:55N 34°09' W 119°13'0 0.0
2017-Nov-02 03:30N 34°09' W 119°13'0 0.0
2017-Nov-02 03:00N 34°09' W 119°13'0 0.0
2017-Nov-02 02:29N 34°09' W 119°13'0 0.0
2017-Nov-02 01:59N 34°09' W 119°13'0 0.0
2017-Nov-02 01:29N 34°09' W 119°13'0 0.0
2017-Nov-02 00:57N 34°09' W 119°13'0 0.1
2017-Nov-02 00:28N 34°09' W 119°13'2 4.1
2017-Nov-01 23:58N 34°07' W 119°14'4 7.9
2017-Nov-01 23:30N 34°04' W 119°15'4 8.3
2017-Nov-01 23:00N 33°60' W 119°15'4 8.3
2017-Nov-01 22:30N 33°56' W 119°16'4 8.5
2017-Nov-01 22:00N 33°51' W 119°16'4 8.4
2017-Nov-01 21:30N 33°47' W 119°17'4 8.4
2017-Nov-01 21:00N 33°43' W 119°18'4 8.3
2017-Nov-01 20:30N 33°39' W 119°19'4 8.7
2017-Nov-01 20:00N 33°35' W 119°20'4 8.9
2017-Nov-01 19:30N 33°30' W 119°20'4 8.5
2017-Nov-01 19:00N 33°26' W 119°21'4 7.9
2017-Nov-01 18:30N 33°22' W 119°21'41 2.5
2017-Nov-01 02:00N 34°03' W 119°15'3 5.7
2017-Nov-01 01:30N 34°06' W 119°15'3 5.3
2017-Nov-01 01:00N 34°08' W 119°13'1 2.1
2017-Nov-01 00:27N 34°09' W 119°13'0 0.0
2017-Oct-31 23:55N 34°09' W 119°13'0 0.0
2017-Oct-31 23:30N 34°09' W 119°13'0 0.0
2017-Oct-31 23:00N 34°09' W 119°13'0 0.0
2017-Oct-31 22:29N 34°09' W 119°13'0 0.0
2017-Oct-31 21:57N 34°09' W 119°13'0 0.0
2017-Oct-31 21:30N 34°09' W 119°13'0 0.0
2017-Oct-31 20:56N 34°09' W 119°13'0 0.0
2017-Oct-31 20:30N 34°09' W 119°13'0 0.0
2017-Oct-31 19:59N 34°09' W 119°13'0 0.0
2017-Oct-31 19:30N 34°09' W 119°13'0 0.0
2017-Oct-31 19:00N 34°09' W 119°13'0 0.0
2017-Oct-31 18:30N 34°09' W 119°13'0 0.0
2017-Oct-31 17:59N 34°09' W 119°13'0 0.0
2017-Oct-31 17:30N 34°09' W 119°13'0 0.0
2017-Oct-31 17:00N 34°09' W 119°13'0 0.0
2017-Oct-31 16:30N 34°09' W 119°13'0 0.0
2017-Oct-31 15:57N 34°09' W 119°13'0 0.0
2017-Oct-31 15:23N 34°09' W 119°13'0 0.0
2017-Oct-31 14:58N 34°09' W 119°13'0 0.0
2017-Oct-31 14:30N 34°09' W 119°13'0 0.5
2017-Oct-31 14:00N 34°09' W 119°12'1 2.3
2017-Oct-31 13:30N 34°08' W 119°13'3 6.2
2017-Oct-31 13:00N 34°05' W 119°12'4 7.1
2017-Oct-31 12:30N 34°03' W 119°09'3 5.6
2017-Oct-31 12:00N 34°02' W 119°06'3 5.4
2017-Oct-31 11:30N 34°01' W 119°03'3 6.1
2017-Oct-31 11:00N 33°59' W 118°60'3 6.0
2017-Oct-31 10:30N 33°57' W 118°57'3 6.0
2017-Oct-31 10:00N 33°56' W 118°53'3 6.0
2017-Oct-31 09:30N 33°54' W 118°50'3 5.9
2017-Oct-31 09:00N 33°53' W 118°47'3 5.9
2017-Oct-31 08:29N 33°51' W 118°44'  

Dump ship's entire track history